Barbados Meteorological Services
Auto gathered TAF list
Powered by Apparatus software
For Flight AA1958
Contact Number 1-(246)-535-0021/2/3/4/5/6
WEB: http://www.barbadosweather.org

**********************************************

2018/05/24 12:18
TAF TLPL 241100Z 2412/2512 09016KT 9999 SCT025 PROB30
TEMPO 2500/2512 SHRA BKN040


**********************************************
2018/05/24 18:30
TAF TJSJ 241726Z 2418/2518 07016KT P6SM VCSH SCT025 SCT050
FM250000 09010KT P6SM VCSH SCT030
FM251400 07017KT P6SM SCT030


**********************************************
2018/05/24 18:07
TAF TFFR 241600Z 2418/2518 12012KT 9999 SCT028 BKN045
TEMPO 2418/2420 3000 SHRA BKN020TCU
BECMG 2422/2424 VRB03KT
TEMPO 2503/2518 4000 SHRA SCT020TCU
BECMG 2512/2514 09010KT


**********************************************
2018/05/24 18:39
TAF TBPB 241700Z 2418/2518 10019KT 9999 SCT020= TAF TVSA 241700Z 2418/2518 08014KT 9999 SCT020


**********************************************
2018/05/24 12:38
TAF TAPA 241100Z 2412/2512 10010KT 9999 SCT020 PROB30
TEMPO 2412/2416 SHRA PROB30
TEMPO 2501/2511 SHRA


**********************************************
2018/05/24 18:58
TAF MYNN 241645Z 2418/2518 16007KT 9999 VCSH FEW016CB BKN040 BKN040
FM250000 10008KT 9999 VCSH SCT018 SCT050 BKN240


**********************************************
2018/05/24 18:30
TAF MTPP 241630Z 2418/2518 09012G22KT 9999 FEW027 PROB30
TEMPO 2422/2501 19008KT -SHRA FEW024CB SCT040
BECMG 2506/2508 12010KT 7000 FEW020
FM251300 09015KT 9999 FEW024


**********************************************
2018/05/24 18:33
TAF MDSD 241600Z 2418/2518 12010KT 9999 FEW018CB SCT020 PROB30
TEMPO 2420/2500 8000 VCSH FEW018CB SCT018


**********************************************
2018/05/24 18:24
TAF KSFB 241722Z 2418/2518 10010KT P6SM VCSH SCT045 SCT060
FM250000 11006KT P6SM FEW060 SCT090 BKN250
FM251400 14008KT P6SM SCT035 BKN110


**********************************************
2018/05/24 18:30
TAF KPHL 241726Z 2418/2524 34008KT P6SM SKC
FM242300 20007KT P6SM SKC
FM250300 23005KT P6SM SKC
FM251400 24008KT P6SM SKC
FM251900 24012KT P6SM FEW050


**********************************************
2018/05/24 15:03
TAF
AMD KPBI 241501Z 2415/2512 12010KT P6SM VCSH SCT020 BKN035 BKN070
FM242300 12006KT P6SM SCT025 BKN050
FM250400 13003KT P6SM VCSH BKN035


**********************************************
2018/05/24 15:03
TAF
AMD KOPF 241501Z 2415/2512 12010KT P6SM VCSH SCT025 BKN035 BKN070
FM250000 12005KT P6SM SCT050 BKN100
FM250500 00000KT P6SM VCSH BKN035


**********************************************
2018/05/24 15:03
TAF
AMD KMIA 241501Z 2415/2518 12010KT P6SM VCSH SCT020 BKN035 BKN100
FM250000 12005KT P6SM SCT050 BKN100
FM250500 11003KT P6SM VCSH BKN035
FM251400 11008KT P6SM VCSH BKN035


**********************************************
2018/05/24 18:24
TAF KMCO 241722Z 2418/2524 10009KT P6SM VCSH FEW035 SCT060
FM250000 11007KT P6SM FEW060 SCT090 BKN250
FM251400 14006KT P6SM FEW025 SCT060 BKN250
FM251800 12009KT P6SM VCSH SCT035 BKN120


**********************************************
2018/05/24 14:35
TAF
AMD KJFK 241331Z 2414/2518 35010KT P6SM SKC
FM241900 VRB05KT P6SM SKC
FM242100 18009KT P6SM SKC
FM250100 19005KT P6SM SKC
FM251300 22010KT P6SM FEW060
FM251700 21017G23KT P6SM FEW060


**********************************************
2018/05/24 18:27
TAF KJAX 241725Z 2418/2518 12009KT P6SM VCTS SCT035CB BKN120
TEMPO 2418/2421 VRB15G25KT 3SM TSRA BR BKN030CB
FM250000 VRB03KT P6SM SCT050 BKN250
FM251500 13007KT P6SM SCT030 BKN250


**********************************************
2018/05/24 15:03
TAF
AMD KFLL 241501Z 2415/2518 12011KT P6SM VCSH FEW020 BKN035 BKN100
FM242300 12006KT P6SM SCT050 BKN100
FM250500 12005KT P6SM VCSH BKN035
FM251400 12010KT P6SM VCSH BKN035


**********************************************
2018/05/24 14:33
TAF
AMD KEWR 241331Z 2414/2518 35009KT P6SM SKC
FM242100 VRB05KT P6SM SKC
FM242200 15007KT P6SM SKC
FM250000 21004KT P6SM SKC
FM251400 24010KT P6SM FEW060
FM251700 23015G22KT P6SM FEW060


**********************************************
2018/05/24 18:30
TAF KCLT 241730Z 2418/2524 07007KT P6SM VCSH BKN019 OVC035
FM242000 10007KT P6SM VCSH BKN035
TEMPO 2420/2424 3SM TSRA OVC025CB
FM250700 13003KT 6SM BR BKN013
FM250800 15004KT 4SM BR OVC008
FM251400 16005KT P6SM BKN015 OVC022
FM251800 17006KT P6SM BKN045 PROB30 2519/2524 4SM -TSRA BKN045CB


**********************************************
2018/05/24 16:40
TAF
AMD KATL 241538Z 2416/2518 08007KT P6SM VCSH BKN025
FM241800 07006KT P6SM SHRA BKN040
TEMPO 2420/2424 4SM -TSRA BKN015CB
FM250200 11005KT P6SM OVC020
FM250500 09005KT P6SM OVC010


**********************************************